createdAt,value
2022-11-05T00:01:10.515Z,8.6
2022-11-05T00:06:16.621Z,8.6
2022-11-05T00:11:21.735Z,8.6
2022-11-05T00:16:27.833Z,8.6
2022-11-05T00:21:33.918Z,8.6
2022-11-05T00:26:40.047Z,8.7
2022-11-05T00:31:46.128Z,8.7
2022-11-05T00:36:52.222Z,8.8
2022-11-05T00:41:58.407Z,8.8
2022-11-05T00:47:03.447Z,8.8
2022-11-05T00:52:08.577Z,8.8
2022-11-05T00:57:13.676Z,8.8
2022-11-05T01:02:18.774Z,8.9
2022-11-05T01:07:23.918Z,8.9
2022-11-05T01:12:29.001Z,9
2022-11-05T01:17:35.122Z,9
2022-11-05T01:22:41.229Z,9
2022-11-05T01:27:47.297Z,9
2022-11-05T01:32:53.406Z,9
2022-11-05T01:37:59.501Z,9
2022-11-05T01:43:05.614Z,9.1
2022-11-05T01:48:11.697Z,9.1
2022-11-05T01:53:17.787Z,9.1
2022-11-05T01:58:23.889Z,9.1
2022-11-05T02:03:29.974Z,9.1
2022-11-05T02:08:36.072Z,9.1
2022-11-05T02:13:42.172Z,9.1
2022-11-05T02:18:47.285Z,9.1
2022-11-05T02:23:53.401Z,9.1
2022-11-05T02:28:59.509Z,9
2022-11-05T02:34:05.577Z,9
2022-11-05T02:39:11.686Z,8.9
2022-11-05T02:44:17.783Z,8.8
2022-11-05T02:49:23.881Z,8.7
2022-11-05T02:54:29.026Z,8.6
2022-11-05T02:59:34.114Z,8.6
2022-11-05T03:04:39.221Z,8.7
2022-11-05T03:09:44.355Z,8.7
2022-11-05T03:14:50.436Z,8.7
2022-11-05T03:19:56.535Z,8.7
2022-11-05T03:25:02.678Z,8.6
2022-11-05T03:30:08.738Z,8.6
2022-11-05T03:35:14.829Z,8.6
2022-11-05T03:40:20.918Z,8.6
2022-11-05T03:45:27.018Z,8.5
2022-11-05T03:50:33.132Z,8.5
2022-11-05T03:55:39.210Z,8.5
2022-11-05T04:00:45.310Z,8.4
2022-11-05T04:05:51.415Z,8.4
2022-11-05T04:10:57.510Z,8.2
2022-11-05T04:16:02.624Z,8.1
2022-11-05T04:21:08.709Z,7.9
2022-11-05T04:26:14.816Z,7.9
2022-11-05T04:31:20.909Z,7.6
2022-11-05T04:36:27.000Z,7.4
2022-11-05T04:41:33.097Z,7.3
2022-11-05T04:46:39.205Z,7.3
2022-11-05T04:51:44.333Z,7.4
2022-11-05T04:56:49.442Z,7.3
2022-11-05T05:01:54.587Z,7.2
2022-11-05T05:06:59.694Z,7.1
2022-11-05T05:12:05.771Z,7
2022-11-05T05:17:11.888Z,6.8
2022-11-05T05:22:17.950Z,6.7
2022-11-05T05:27:24.049Z,6.6
2022-11-05T05:32:30.160Z,6.6
2022-11-05T05:37:36.251Z,6.5
2022-11-05T05:42:42.352Z,6.5
2022-11-05T05:47:48.462Z,6.5
2022-11-05T05:52:54.549Z,6.5
2022-11-05T05:58:00.651Z,6.3
2022-11-05T06:03:06.770Z,6.1
2022-11-05T06:08:12.832Z,6.1
2022-11-05T06:13:17.964Z,6.2
2022-11-05T06:18:24.073Z,6.1
2022-11-05T06:23:30.150Z,5.9
2022-11-05T06:28:36.243Z,5.8
2022-11-05T06:33:42.394Z,5.8
2022-11-05T06:38:48.470Z,5.7
2022-11-05T06:43:54.534Z,5.6
2022-11-05T06:48:59.665Z,5.6
2022-11-05T06:54:04.795Z,5.6
2022-11-05T06:59:09.891Z,5.7
2022-11-05T07:04:15.020Z,5.7
2022-11-05T07:09:20.141Z,5.8
2022-11-05T07:14:25.253Z,5.9
2022-11-05T07:19:31.389Z,6
2022-11-05T07:24:37.437Z,6.1
2022-11-05T07:29:43.628Z,6.2
2022-11-05T07:34:49.627Z,6.4
2022-11-05T07:39:55.786Z,6.6
2022-11-05T07:45:01.822Z,6.8
2022-11-05T07:50:07.927Z,7
2022-11-05T07:55:14.034Z,7.2
2022-11-05T08:00:20.141Z,7.4
2022-11-05T08:05:26.233Z,7.6
2022-11-05T08:10:32.352Z,7.7
2022-11-05T08:15:38.420Z,7.7
2022-11-05T08:20:43.527Z,7.9
2022-11-05T08:25:49.635Z,8.1
2022-11-05T08:30:55.724Z,8.4
2022-11-05T08:36:01.859Z,8.7
2022-11-05T08:41:08.043Z,8.8
2022-11-05T08:46:14.021Z,9
2022-11-05T08:51:20.162Z,9.1
2022-11-05T08:56:25.273Z,9.4
2022-11-05T09:01:30.351Z,9.6
2022-11-05T09:06:35.459Z,9.8
2022-11-05T09:11:40.562Z,9.9
2022-11-05T09:16:46.687Z,10.2
2022-11-05T09:21:52.778Z,10.4
2022-11-05T09:26:58.856Z,10.6
2022-11-05T09:32:04.953Z,10.7
2022-11-05T09:37:11.097Z,10.9
2022-11-05T09:42:17.158Z,11.2
2022-11-05T09:47:23.237Z,11.3
2022-11-05T09:52:29.346Z,11.7
2022-11-05T09:57:35.452Z,12.2
2022-11-05T10:02:41.527Z,12.9
2022-11-05T10:07:47.654Z,13.6
2022-11-05T10:12:53.736Z,14
2022-11-05T10:17:58.853Z,14.6
2022-11-05T10:23:04.943Z,12.7
2022-11-05T10:28:11.043Z,11.8
2022-11-05T10:33:17.188Z,11.6
2022-11-05T10:38:23.234Z,11.5
2022-11-05T10:43:29.327Z,11.6
2022-11-05T10:48:35.431Z,11.4
2022-11-05T10:53:40.545Z,11.3
2022-11-05T10:58:45.693Z,11.4
2022-11-05T11:03:50.777Z,11.7
2022-11-05T11:08:55.945Z,11.8
2022-11-05T11:14:02.003Z,11.8
2022-11-05T11:19:08.116Z,11.6
2022-11-05T11:24:14.207Z,11.5
2022-11-05T11:29:20.314Z,11.6
2022-11-05T11:34:26.385Z,11.8
2022-11-05T11:39:32.468Z,11.8
2022-11-05T11:44:38.567Z,11.9
2022-11-05T11:49:44.665Z,12.1
2022-11-05T11:54:50.762Z,12.2
2022-11-05T11:59:56.873Z,12.3
2022-11-05T12:05:03.000Z,12.4
2022-11-05T12:10:09.070Z,12.4
2022-11-05T12:15:14.200Z,12.6
2022-11-05T12:20:20.262Z,12.6
2022-11-05T12:25:26.383Z,12.5
2022-11-05T12:30:32.469Z,12.3
2022-11-05T12:35:38.572Z,12.4
2022-11-05T12:40:44.655Z,12.5
2022-11-05T12:45:50.773Z,12.6
2022-11-05T12:50:55.857Z,12.6
2022-11-05T12:56:00.973Z,12.6
2022-11-05T13:01:07.068Z,12.6
2022-11-05T13:06:13.181Z,12.5
2022-11-05T13:11:19.259Z,12.4
2022-11-05T13:16:25.371Z,13
2022-11-05T13:21:31.504Z,13.4
2022-11-05T13:26:37.581Z,12.8
2022-11-05T13:31:43.650Z,12.8
2022-11-05T13:36:49.807Z,12.8
2022-11-05T13:41:55.830Z,12.8
2022-11-05T13:47:02.060Z,13.1
2022-11-05T13:52:08.075Z,13
2022-11-05T13:57:14.161Z,13.3
2022-11-05T14:02:19.258Z,13.3
2022-11-05T14:07:25.352Z,12.8
2022-11-05T14:12:31.488Z,12.9
2022-11-05T14:17:37.565Z,12.7
2022-11-05T14:22:43.649Z,12.7
2022-11-05T14:27:49.739Z,12.8
2022-11-05T14:32:55.841Z,13.2
2022-11-05T14:38:00.964Z,13.5
2022-11-05T14:43:06.070Z,13.7
2022-11-05T14:48:12.161Z,12.7
2022-11-05T14:53:18.268Z,12
2022-11-05T14:58:24.403Z,11.6
2022-11-05T15:03:30.449Z,11.2
2022-11-05T15:08:36.621Z,11
2022-11-05T15:13:42.655Z,10.7
2022-11-05T15:18:48.764Z,10.5
2022-11-05T15:23:54.898Z,10.3
2022-11-05T15:29:00.936Z,10.1
2022-11-05T15:34:07.037Z,9.8
2022-11-05T15:39:12.170Z,9.5
2022-11-05T15:44:18.264Z,9.2
2022-11-05T15:49:24.348Z,8.9
2022-11-05T15:54:30.441Z,8.7
2022-11-05T15:59:36.533Z,8.4
2022-11-05T16:04:42.696Z,8.2
2022-11-05T16:09:48.742Z,8
2022-11-05T16:14:54.858Z,7.7
2022-11-05T16:20:00.928Z,7.4
2022-11-05T16:25:06.073Z,7.3
2022-11-05T16:30:11.192Z,7.1
2022-11-05T16:35:16.319Z,7
2022-11-05T16:40:21.422Z,6.8
2022-11-05T16:45:27.491Z,6.6
2022-11-05T16:50:33.641Z,6.5
2022-11-05T16:55:39.722Z,6.4
2022-11-05T17:00:45.791Z,6.4
2022-11-05T17:05:51.931Z,6.4
2022-11-05T17:10:58.001Z,6.3
2022-11-05T17:16:04.081Z,6.1
2022-11-05T17:21:10.172Z,5.9
2022-11-05T17:26:16.305Z,5.9
2022-11-05T17:31:22.376Z,5.9
2022-11-05T17:36:28.484Z,5.8
2022-11-05T17:41:34.606Z,5.6
2022-11-05T17:46:39.686Z,5.7
2022-11-05T17:51:45.825Z,5.7
2022-11-05T17:56:51.906Z,5.8
2022-11-05T18:01:58.030Z,5.7
2022-11-05T18:07:04.213Z,5.7
2022-11-05T18:12:10.191Z,5.7
2022-11-05T18:17:16.338Z,5.6
2022-11-05T18:22:21.393Z,5.6
2022-11-05T18:27:26.534Z,5.5
2022-11-05T18:32:31.667Z,5.4
2022-11-05T18:37:36.769Z,5.4
2022-11-05T18:42:41.888Z,5.4
2022-11-05T18:47:47.017Z,5.3
2022-11-05T18:52:52.147Z,5.2
2022-11-05T18:57:57.249Z,5.2
2022-11-05T19:03:03.322Z,5.1
2022-11-05T19:08:09.400Z,4.9
2022-11-05T19:13:15.518Z,4.9
2022-11-05T19:18:21.644Z,4.9
2022-11-05T19:23:27.738Z,4.8
2022-11-05T19:28:33.905Z,4.7
2022-11-05T19:33:39.960Z,4.6
2022-11-05T19:38:46.008Z,4.8
2022-11-05T19:43:52.148Z,4.9
2022-11-05T19:48:58.264Z,5.1
2022-11-05T19:54:04.308Z,5
2022-11-05T19:59:10.477Z,4.8
2022-11-05T20:04:15.526Z,4.7
2022-11-05T20:09:21.630Z,4.8
2022-11-05T20:14:27.776Z,5.1
2022-11-05T20:19:33.927Z,5.1
2022-11-05T20:24:39.964Z,5.1
2022-11-05T20:29:46.086Z,5.2
2022-11-05T20:34:52.177Z,5.2
2022-11-05T20:39:57.318Z,5.2
2022-11-05T20:45:02.332Z,5.1
2022-11-05T20:50:08.433Z,5.2
2022-11-05T20:55:14.547Z,5.2
2022-11-05T21:00:20.656Z,5.1
2022-11-05T21:05:26.765Z,4.9
2022-11-05T21:10:32.816Z,4.7
2022-11-05T21:15:38.916Z,4.7
2022-11-05T21:20:45.011Z,4.5
2022-11-05T21:25:51.127Z,4.4
2022-11-05T21:30:57.301Z,4.4
2022-11-05T21:36:03.403Z,4.4
2022-11-05T21:41:09.458Z,4.3
2022-11-05T21:46:15.559Z,4.4
2022-11-05T21:51:20.682Z,4.1
2022-11-05T21:56:26.735Z,4
2022-11-05T22:01:32.830Z,4.1
2022-11-05T22:06:38.969Z,4.3
2022-11-05T22:11:45.050Z,4.3
2022-11-05T22:16:51.117Z,4.3
2022-11-05T22:21:57.272Z,4.2
2022-11-05T22:27:02.410Z,4.1
2022-11-05T22:32:07.557Z,4.1
2022-11-05T22:37:12.709Z,4
2022-11-05T22:42:17.792Z,4
2022-11-05T22:47:23.783Z,4
2022-11-05T22:52:29.900Z,4.1
2022-11-05T22:57:35.983Z,4.1
2022-11-05T23:02:42.137Z,4.2
2022-11-05T23:07:48.192Z,4.4
2022-11-05T23:12:54.275Z,4.8
2022-11-05T23:18:00.413Z,5
2022-11-05T23:23:06.522Z,5.1
2022-11-05T23:28:12.574Z,5.1
2022-11-05T23:33:18.732Z,5.1
2022-11-05T23:38:24.809Z,5
2022-11-05T23:43:30.902Z,5
2022-11-05T23:48:35.996Z,4.9
2022-11-05T23:53:42.135Z,4.9
2022-11-05T23:58:48.272Z,4.7
